createdAt,value
2022-12-29T00:01:56.404Z,31.47
2022-12-29T00:04:23.454Z,31.17
2022-12-29T00:06:50.361Z,31.19
2022-12-29T00:09:17.866Z,31.38
2022-12-29T00:11:44.972Z,31.19
2022-12-29T00:14:32.661Z,31.10
2022-12-29T00:16:59.530Z,31.44
2022-12-29T00:19:45.554Z,31.15
2022-12-29T00:22:32.259Z,31.31
2022-12-29T00:25:18.207Z,31.59
2022-12-29T00:28:07.690Z,31.44
2022-12-29T00:30:56.509Z,31.28
2022-12-29T00:33:48.901Z,31.60
2022-12-29T00:36:18.731Z,31.40
2022-12-29T00:39:08.255Z,31.60
2022-12-29T00:41:53.536Z,31.45
2022-12-29T00:44:20.741Z,31.37
2022-12-29T00:46:49.247Z,31.69
2022-12-29T00:49:31.887Z,31.48
2022-12-29T00:52:01.371Z,31.71
2022-12-29T00:54:30.015Z,31.43
2022-12-29T00:56:57.170Z,31.42
2022-12-29T00:59:25.191Z,31.56
2022-12-29T01:01:54.771Z,31.63
2022-12-29T01:04:23.200Z,31.61
2022-12-29T01:06:50.682Z,31.63
2022-12-29T01:09:36.799Z,31.83
2022-12-29T01:12:04.198Z,31.66
2022-12-29T01:14:31.456Z,31.82
2022-12-29T01:16:59.798Z,31.79
2022-12-29T01:19:26.684Z,31.64
2022-12-29T01:21:53.569Z,31.90
2022-12-29T01:24:21.495Z,31.53
2022-12-29T01:26:49.578Z,31.73
2022-12-29T01:29:17.858Z,31.89
2022-12-29T01:31:46.319Z,31.91
2022-12-29T01:34:14.796Z,31.77
2022-12-29T01:36:41.668Z,31.70
2022-12-29T01:39:08.657Z,31.88
2022-12-29T01:41:35.623Z,31.76
2022-12-29T01:44:03.220Z,31.86
2022-12-29T01:46:34.208Z,31.86
2022-12-29T01:49:09.654Z,31.91
2022-12-29T01:51:41.760Z,31.71
2022-12-29T01:54:12.410Z,31.72
2022-12-29T01:56:39.546Z,31.77
2022-12-29T01:59:10.230Z,31.76
2022-12-29T02:01:37.240Z,31.79
2022-12-29T02:04:05.109Z,31.79
2022-12-29T02:06:36.787Z,31.84
2022-12-29T02:09:05.038Z,31.90
2022-12-29T02:11:32.671Z,31.84
2022-12-29T02:14:03.561Z,31.96
2022-12-29T02:16:46.181Z,31.73
2022-12-29T02:19:40.655Z,31.82
2022-12-29T02:22:20.844Z,31.86
2022-12-29T02:25:15.187Z,31.87
2022-12-29T02:27:53.159Z,31.68
2022-12-29T02:30:43.158Z,31.84
2022-12-29T02:33:20.777Z,32.09
2022-12-29T02:35:55.952Z,32.03
2022-12-29T02:38:35.591Z,31.80
2022-12-29T02:41:09.209Z,32.00
2022-12-29T02:43:41.430Z,31.99
2022-12-29T02:46:18.037Z,31.86
2022-12-29T02:48:52.760Z,31.79
2022-12-29T02:51:24.941Z,31.78
2022-12-29T02:54:12.371Z,31.83
2022-12-29T02:56:39.328Z,31.95
2022-12-29T02:59:07.481Z,32.11
2022-12-29T03:02:15.263Z,32.02
2022-12-29T03:04:51.918Z,31.95
2022-12-29T03:07:24.639Z,32.00
2022-12-29T03:10:00.887Z,31.96
2022-12-29T03:12:50.074Z,31.86
2022-12-29T03:15:42.734Z,31.96
2022-12-29T03:18:17.293Z,32.06
2022-12-29T03:20:52.210Z,32.16
2022-12-29T03:23:20.913Z,32.06
2022-12-29T03:25:52.176Z,31.70
2022-12-29T03:28:25.674Z,32.22
2022-12-29T03:30:52.580Z,32.18
2022-12-29T03:33:25.430Z,31.94
2022-12-29T03:35:59.054Z,32.04
2022-12-29T03:38:34.807Z,31.95
2022-12-29T03:41:08.270Z,32.05
2022-12-29T03:43:35.468Z,32.11
2022-12-29T03:46:02.368Z,32.10
2022-12-29T03:48:30.663Z,32.13
2022-12-29T03:50:57.569Z,32.08
2022-12-29T03:53:24.495Z,32.19
2022-12-29T03:55:51.666Z,31.98
2022-12-29T03:58:18.537Z,32.18
2022-12-29T04:01:02.750Z,32.07
2022-12-29T04:03:34.074Z,32.04
2022-12-29T04:06:01.682Z,32.05
2022-12-29T04:08:34.299Z,32.14
2022-12-29T04:11:01.237Z,32.21
2022-12-29T04:13:28.164Z,32.09
2022-12-29T04:15:55.054Z,32.13
2022-12-29T04:18:22.672Z,32.22
2022-12-29T04:21:03.810Z,32.09
2022-12-29T04:23:35.339Z,32.16
2022-12-29T04:26:03.926Z,32.22
2022-12-29T04:28:31.638Z,32.09
2022-12-29T04:31:26.420Z,32.32
2022-12-29T04:33:53.368Z,32.32
2022-12-29T04:36:27.799Z,32.17
2022-12-29T04:38:57.021Z,32.17
2022-12-29T04:41:23.954Z,32.18
2022-12-29T04:43:50.978Z,32.14
2022-12-29T04:46:36.986Z,32.14
2022-12-29T04:49:31.013Z,32.23
2022-12-29T04:52:17.706Z,32.29
2022-12-29T04:54:46.113Z,32.21
2022-12-29T04:57:18.238Z,32.32
2022-12-29T04:59:51.704Z,32.10
2022-12-29T05:02:18.988Z,32.17
2022-12-29T05:04:47.648Z,32.25
2022-12-29T05:07:14.864Z,32.07
2022-12-29T05:09:43.221Z,32.48
2022-12-29T05:12:10.956Z,32.29
2022-12-29T05:14:45.718Z,32.18
2022-12-29T05:17:12.616Z,32.41
2022-12-29T05:19:39.512Z,32.09
2022-12-29T05:22:06.734Z,32.29
2022-12-29T05:24:34.590Z,32.28
2022-12-29T05:27:02.849Z,32.33
2022-12-29T05:29:52.315Z,32.17
2022-12-29T05:32:19.275Z,32.36
2022-12-29T05:34:46.273Z,32.13
2022-12-29T05:37:13.189Z,32.39
2022-12-29T05:39:41.493Z,32.27
2022-12-29T05:42:10.898Z,32.08
2022-12-29T05:44:54.920Z,32.29
2022-12-29T05:47:44.975Z,32.38
2022-12-29T05:50:30.463Z,32.44
2022-12-29T05:53:08.885Z,32.38
2022-12-29T05:55:37.483Z,32.43
2022-12-29T05:58:05.999Z,32.33
2022-12-29T06:00:32.932Z,32.41
2022-12-29T06:03:00.429Z,32.16
2022-12-29T06:05:27.586Z,32.33
2022-12-29T06:07:54.557Z,31.96
2022-12-29T06:10:21.621Z,31.85
2022-12-29T06:12:54.846Z,31.62
2022-12-29T06:15:23.348Z,32.06
2022-12-29T06:17:51.053Z,31.61
2022-12-29T06:20:18.426Z,31.61
2022-12-29T06:22:46.394Z,31.42
2022-12-29T06:25:14.239Z,31.48
2022-12-29T06:27:42.771Z,31.29
2022-12-29T06:30:12.044Z,31.56
2022-12-29T06:32:41.832Z,31.42
2022-12-29T06:35:11.503Z,31.64
2022-12-29T06:37:46.241Z,31.65
2022-12-29T06:40:13.200Z,31.20
2022-12-29T06:43:02.052Z,31.46
2022-12-29T06:45:45.650Z,31.07
2022-12-29T06:48:14.029Z,31.13
2022-12-29T06:50:40.878Z,31.25
2022-12-29T06:53:08.014Z,31.07
2022-12-29T06:55:34.932Z,31.04
2022-12-29T06:58:02.268Z,31.44
2022-12-29T07:00:29.573Z,30.95
2022-12-29T07:02:59.057Z,31.19
2022-12-29T07:05:28.747Z,31.30
2022-12-29T07:07:55.789Z,31.33
2022-12-29T07:10:23.135Z,31.34
2022-12-29T07:12:49.974Z,31.34
2022-12-29T07:15:16.984Z,31.38
2022-12-29T07:17:43.821Z,30.88
2022-12-29T07:20:10.919Z,31.05
2022-12-29T07:22:39.700Z,31.17
2022-12-29T07:25:06.963Z,31.31
2022-12-29T07:27:33.941Z,31.41
2022-12-29T07:30:00.871Z,31.32
2022-12-29T07:32:27.744Z,31.43
2022-12-29T07:34:54.630Z,31.26
2022-12-29T07:37:21.542Z,31.10
2022-12-29T07:39:49.835Z,30.98
2022-12-29T07:42:16.727Z,31.07
2022-12-29T07:44:50.725Z,30.83
2022-12-29T07:47:36.192Z,31.45
2022-12-29T07:50:03.201Z,31.33
2022-12-29T07:52:30.065Z,30.96
2022-12-29T07:54:58.322Z,31.12
2022-12-29T07:57:29.801Z,31.37
2022-12-29T07:59:59.027Z,31.30
2022-12-29T08:02:27.542Z,31.48
2022-12-29T08:04:54.638Z,31.13
2022-12-29T08:07:22.052Z,31.59
2022-12-29T08:09:48.913Z,31.19
2022-12-29T08:12:17.243Z,31.60
2022-12-29T08:14:44.129Z,31.29
2022-12-29T08:17:11.377Z,31.51
2022-12-29T08:19:38.691Z,31.56
2022-12-29T08:22:05.713Z,31.85
2022-12-29T08:24:32.543Z,31.38
2022-12-29T08:27:02.962Z,31.54
2022-12-29T08:29:35.258Z,31.51
2022-12-29T08:32:02.081Z,31.64
2022-12-29T08:34:29.024Z,31.84
2022-12-29T08:36:55.886Z,31.56
2022-12-29T08:39:22.776Z,31.55
2022-12-29T08:41:50.313Z,31.36
2022-12-29T08:44:17.324Z,31.62
2022-12-29T08:46:45.650Z,31.67
2022-12-29T08:49:12.597Z,31.78
2022-12-29T08:51:39.523Z,31.57
2022-12-29T08:54:06.621Z,31.64
2022-12-29T08:56:33.503Z,31.59
2022-12-29T08:59:01.022Z,31.69
2022-12-29T09:01:31.622Z,31.62
2022-12-29T09:04:16.940Z,31.84
2022-12-29T09:06:45.153Z,31.50
2022-12-29T09:09:13.064Z,31.48
2022-12-29T09:11:39.926Z,31.62
2022-12-29T09:14:06.824Z,31.62
2022-12-29T09:16:34.032Z,31.41
2022-12-29T09:19:02.790Z,31.72
2022-12-29T09:21:29.873Z,31.28
2022-12-29T09:23:56.848Z,31.63
2022-12-29T09:26:23.805Z,31.72
2022-12-29T09:28:50.657Z,31.61
2022-12-29T09:31:17.583Z,31.53
2022-12-29T09:33:44.448Z,31.42
2022-12-29T09:36:12.758Z,31.59
2022-12-29T09:38:39.604Z,31.52
2022-12-29T09:41:15.077Z,31.05
2022-12-29T09:44:04.281Z,31.29
2022-12-29T09:46:37.080Z,31.58
2022-12-29T09:49:16.541Z,31.45
2022-12-29T09:51:49.559Z,31.33
2022-12-29T09:54:30.696Z,31.21
2022-12-29T09:56:57.667Z,31.01
2022-12-29T09:59:35.666Z,31.32
2022-12-29T10:02:14.183Z,31.28
2022-12-29T10:04:42.734Z,31.37
2022-12-29T10:07:29.775Z,31.37
2022-12-29T10:10:12.010Z,31.24
2022-12-29T10:12:53.349Z,31.35
2022-12-29T10:15:36.444Z,31.43
2022-12-29T10:18:19.370Z,31.06
2022-12-29T10:20:53.966Z,31.08
2022-12-29T10:23:29.897Z,31.36
2022-12-29T10:25:58.564Z,31.42
2022-12-29T10:28:35.189Z,31.02
2022-12-29T10:31:08.861Z,30.97
2022-12-29T10:33:40.303Z,31.67
2022-12-29T10:36:17.087Z,31.00
2022-12-29T10:38:54.015Z,31.61
2022-12-29T10:41:26.392Z,31.61
2022-12-29T10:43:55.462Z,31.29
2022-12-29T10:46:26.650Z,31.22
2022-12-29T10:48:53.889Z,30.91
2022-12-29T10:51:23.663Z,31.09
2022-12-29T10:53:54.227Z,31.57
2022-12-29T10:56:29.715Z,31.35
2022-12-29T10:59:00.917Z,31.78
2022-12-29T11:01:36.085Z,31.58
2022-12-29T11:04:06.876Z,31.52
2022-12-29T11:06:35.000Z,31.30
2022-12-29T11:09:13.454Z,31.21
2022-12-29T11:11:40.345Z,31.70
2022-12-29T11:14:14.697Z,31.63
2022-12-29T11:16:42.936Z,31.36
2022-12-29T11:19:22.614Z,31.69
2022-12-29T11:21:49.725Z,31.38
2022-12-29T11:24:23.556Z,31.77
2022-12-29T11:26:54.001Z,31.66
2022-12-29T11:29:39.164Z,31.38
2022-12-29T11:32:13.082Z,31.72
2022-12-29T11:34:40.049Z,31.48
2022-12-29T11:37:12.289Z,31.61
2022-12-29T11:39:46.202Z,31.89
2022-12-29T11:42:17.512Z,31.53
2022-12-29T11:44:45.499Z,31.76
2022-12-29T11:47:24.740Z,31.89
2022-12-29T11:49:55.256Z,32.11
2022-12-29T11:52:24.768Z,31.91
2022-12-29T11:54:54.491Z,31.62
2022-12-29T11:57:24.723Z,31.56
2022-12-29T11:59:56.037Z,31.97
2022-12-29T12:02:42.491Z,31.96
2022-12-29T12:05:27.936Z,32.22
2022-12-29T12:08:01.851Z,31.89
2022-12-29T12:10:34.918Z,32.00
2022-12-29T12:13:15.484Z,32.17
2022-12-29T12:15:50.161Z,32.24
2022-12-29T12:18:31.706Z,31.83
2022-12-29T12:21:06.949Z,31.96
2022-12-29T12:23:41.436Z,31.87
2022-12-29T12:26:15.931Z,32.22
2022-12-29T12:28:53.943Z,32.28
2022-12-29T12:31:35.380Z,32.33
2022-12-29T12:34:05.545Z,32.74
2022-12-29T12:36:50.476Z,32.61
2022-12-29T12:39:26.689Z,32.40
2022-12-29T12:42:10.749Z,32.04
2022-12-29T12:44:48.741Z,32.18
2022-12-29T12:47:35.206Z,32.21
2022-12-29T12:50:25.877Z,32.22
2022-12-29T12:53:20.137Z,32.27
2022-12-29T12:56:17.002Z,32.13
2022-12-29T12:58:53.436Z,32.23
2022-12-29T13:01:37.001Z,32.42
2022-12-29T13:04:25.164Z,32.39
2022-12-29T13:07:00.793Z,31.75
2022-12-29T13:09:44.523Z,32.02
2022-12-29T13:12:23.654Z,32.28
2022-12-29T13:15:05.131Z,31.96
2022-12-29T13:17:37.513Z,32.02
2022-12-29T13:20:19.673Z,31.83
2022-12-29T13:22:56.281Z,32.20
2022-12-29T13:25:32.376Z,32.22
2022-12-29T13:28:06.819Z,32.06
2022-12-29T13:30:41.704Z,32.39
2022-12-29T13:33:22.545Z,32.04
2022-12-29T13:35:59.922Z,31.97
2022-12-29T13:38:34.810Z,32.12
2022-12-29T13:41:05.858Z,32.31
2022-12-29T13:43:35.213Z,31.80
2022-12-29T13:46:09.240Z,32.22
2022-12-29T13:48:40.864Z,32.04
2022-12-29T13:51:10.560Z,31.85
2022-12-29T13:53:57.455Z,32.14
2022-12-29T13:56:32.117Z,32.28
2022-12-29T13:59:09.901Z,32.34
2022-12-29T14:01:44.786Z,32.00
2022-12-29T14:04:14.121Z,31.87
2022-12-29T14:06:41.865Z,32.20
2022-12-29T14:09:47.447Z,32.34
2022-12-29T14:12:34.031Z,32.32
2022-12-29T14:15:20.585Z,32.33
2022-12-29T14:18:04.569Z,32.22
2022-12-29T14:20:31.798Z,32.13
2022-12-29T14:23:01.092Z,31.91
2022-12-29T14:25:54.895Z,32.15
2022-12-29T14:28:25.573Z,32.42
2022-12-29T14:30:54.780Z,31.94
2022-12-29T14:33:26.697Z,32.27
2022-12-29T14:35:54.860Z,32.49
2022-12-29T14:38:27.266Z,32.49
2022-12-29T14:41:18.965Z,32.37
2022-12-29T14:44:01.013Z,32.38
2022-12-29T14:46:47.073Z,32.47
2022-12-29T14:49:20.196Z,32.65
2022-12-29T14:51:49.312Z,32.63
2022-12-29T14:54:54.549Z,32.72
2022-12-29T14:57:27.942Z,32.59
2022-12-29T14:59:59.343Z,32.40
2022-12-29T15:02:27.478Z,32.61
2022-12-29T15:05:02.296Z,32.69
2022-12-29T15:07:31.234Z,32.86
2022-12-29T15:10:04.176Z,32.82
2022-12-29T15:12:39.381Z,32.73
2022-12-29T15:15:20.331Z,32.51
2022-12-29T15:17:47.604Z,32.79
2022-12-29T15:20:28.317Z,32.65
2022-12-29T15:22:58.167Z,32.86
2022-12-29T15:25:26.332Z,32.92
2022-12-29T15:27:55.928Z,32.92
2022-12-29T15:30:23.066Z,32.92
2022-12-29T15:32:51.162Z,32.35
2022-12-29T15:35:32.087Z,32.53
2022-12-29T15:38:00.569Z,32.58
2022-12-29T15:40:29.689Z,32.78
2022-12-29T15:43:24.566Z,32.38
2022-12-29T15:45:52.915Z,32.37
2022-12-29T15:48:22.482Z,32.26
2022-12-29T15:50:51.689Z,32.34
2022-12-29T15:53:26.947Z,32.14
2022-12-29T15:55:57.104Z,32.17
2022-12-29T15:58:31.457Z,32.33
2022-12-29T16:01:00.200Z,32.50
2022-12-29T16:03:33.805Z,32.58
2022-12-29T16:06:11.616Z,32.39
2022-12-29T16:08:40.907Z,32.35
2022-12-29T16:11:23.081Z,31.99
2022-12-29T16:13:52.333Z,32.54
2022-12-29T16:16:23.171Z,32.52
2022-12-29T16:18:57.310Z,32.15
2022-12-29T16:21:28.934Z,32.15
2022-12-29T16:24:01.072Z,31.92
2022-12-29T16:26:28.248Z,32.06
2022-12-29T16:28:58.589Z,32.28
2022-12-29T16:31:33.314Z,32.24
2022-12-29T16:34:11.055Z,32.48
2022-12-29T16:36:54.460Z,31.89
2022-12-29T16:39:33.860Z,32.03
2022-12-29T16:42:01.517Z,32.13
2022-12-29T16:44:30.234Z,32.26
2022-12-29T16:47:20.598Z,32.28
2022-12-29T16:49:53.187Z,31.84
2022-12-29T16:52:25.118Z,32.10
2022-12-29T16:54:55.740Z,32.20
2022-12-29T16:57:28.951Z,32.03
2022-12-29T16:59:58.526Z,32.06
2022-12-29T17:02:28.872Z,32.21
2022-12-29T17:04:56.208Z,32.23
2022-12-29T17:07:26.661Z,31.95
2022-12-29T17:09:54.332Z,31.81
2022-12-29T17:12:24.626Z,31.91
2022-12-29T17:14:55.067Z,32.17
2022-12-29T17:17:33.126Z,31.97
2022-12-29T17:20:04.101Z,31.68
2022-12-29T17:22:32.825Z,31.71
2022-12-29T17:25:01.665Z,32.14
2022-12-29T17:27:33.070Z,31.71
2022-12-29T17:30:03.399Z,31.80
2022-12-29T17:32:30.650Z,31.99
2022-12-29T17:34:57.561Z,31.98
2022-12-29T17:37:33.116Z,31.81
2022-12-29T17:40:01.286Z,31.98
2022-12-29T17:42:28.199Z,32.14
2022-12-29T17:44:55.104Z,32.13
2022-12-29T17:47:22.001Z,32.24
2022-12-29T17:49:48.900Z,32.28
2022-12-29T17:52:17.569Z,32.31
2022-12-29T17:54:48.113Z,32.18
2022-12-29T17:57:16.248Z,31.80
2022-12-29T17:59:43.662Z,32.05
2022-12-29T18:02:24.793Z,31.83
2022-12-29T18:04:51.992Z,31.65
2022-12-29T18:07:18.938Z,31.98
2022-12-29T18:09:47.225Z,31.62
2022-12-29T18:12:30.895Z,31.62
2022-12-29T18:14:58.024Z,32.12
2022-12-29T18:17:25.630Z,31.44
2022-12-29T18:19:54.836Z,31.45
2022-12-29T18:22:23.641Z,31.90
2022-12-29T18:24:52.148Z,31.71
2022-12-29T18:27:19.677Z,31.33
2022-12-29T18:29:47.024Z,31.76
2022-12-29T18:32:14.920Z,31.45
2022-12-29T18:34:42.550Z,31.53
2022-12-29T18:37:09.926Z,31.75
2022-12-29T18:39:39.821Z,31.22
2022-12-29T18:42:09.697Z,31.63
2022-12-29T18:44:37.228Z,31.11
2022-12-29T18:47:04.428Z,31.13
2022-12-29T18:49:31.310Z,31.41
2022-12-29T18:51:58.250Z,31.69
2022-12-29T18:54:28.637Z,31.41
2022-12-29T18:56:55.654Z,31.23
2022-12-29T18:59:24.142Z,31.07
2022-12-29T19:01:51.853Z,31.05
2022-12-29T19:04:19.071Z,31.54
2022-12-29T19:06:46.037Z,31.39
2022-12-29T19:09:13.900Z,31.04
2022-12-29T19:11:40.859Z,31.26
2022-12-29T19:14:14.494Z,31.64
2022-12-29T19:16:42.742Z,31.46
2022-12-29T19:19:15.180Z,31.02
2022-12-29T19:21:42.253Z,31.46
2022-12-29T19:24:09.172Z,31.21
2022-12-29T19:26:37.820Z,31.55
2022-12-29T19:29:05.578Z,31.64
2022-12-29T19:31:32.704Z,31.44
2022-12-29T19:34:02.953Z,31.68
2022-12-29T19:36:30.190Z,31.68
2022-12-29T19:38:57.100Z,31.88
2022-12-29T19:41:24.287Z,31.23
2022-12-29T19:43:51.137Z,31.38
2022-12-29T19:46:19.340Z,31.22
2022-12-29T19:48:46.311Z,31.44
2022-12-29T19:51:17.226Z,31.20
2022-12-29T19:53:44.966Z,31.47
2022-12-29T19:56:12.696Z,31.74
2022-12-29T19:58:45.277Z,31.66
2022-12-29T20:01:16.615Z,31.64
2022-12-29T20:03:43.662Z,31.56
2022-12-29T20:06:11.260Z,31.47
2022-12-29T20:08:40.512Z,31.62
2022-12-29T20:11:09.296Z,31.18
2022-12-29T20:13:36.205Z,31.02
2022-12-29T20:16:05.445Z,31.33
2022-12-29T20:18:32.520Z,31.46
2022-12-29T20:21:04.015Z,31.67
2022-12-29T20:23:31.157Z,31.14
2022-12-29T20:26:00.471Z,31.48
2022-12-29T20:28:27.943Z,31.59
2022-12-29T20:30:58.096Z,31.05
2022-12-29T20:33:25.110Z,31.19
2022-12-29T20:35:52.242Z,31.16
2022-12-29T20:38:19.429Z,31.20
2022-12-29T20:40:47.076Z,31.39
2022-12-29T20:43:16.409Z,31.35
2022-12-29T20:45:43.986Z,31.19
2022-12-29T20:48:10.943Z,31.31
2022-12-29T20:50:37.840Z,31.27
2022-12-29T20:53:04.743Z,31.57
2022-12-29T20:55:31.637Z,31.16
2022-12-29T20:58:23.089Z,31.34
2022-12-29T21:00:47.031Z,31.47
2022-12-29T21:03:14.052Z,31.50
2022-12-29T21:05:41.036Z,31.72
2022-12-29T21:08:08.197Z,31.67
2022-12-29T21:10:35.075Z,31.49
2022-12-29T21:13:01.930Z,31.44
2022-12-29T21:15:30.050Z,31.21
2022-12-29T21:17:58.673Z,31.34
2022-12-29T21:20:32.036Z,31.54
2022-12-29T21:23:00.699Z,31.48
2022-12-29T21:25:36.765Z,31.47
2022-12-29T21:28:04.236Z,31.38
2022-12-29T21:30:31.145Z,31.64
2022-12-29T21:33:00.278Z,31.86
2022-12-29T21:35:28.144Z,31.46
2022-12-29T21:37:55.107Z,31.55
2022-12-29T21:40:25.217Z,31.53
2022-12-29T21:42:52.123Z,31.37
2022-12-29T21:45:24.770Z,31.45
2022-12-29T21:48:10.238Z,31.49
2022-12-29T21:50:59.273Z,31.61
2022-12-29T21:53:38.997Z,31.93
2022-12-29T21:56:08.280Z,31.97
2022-12-29T21:58:54.384Z,31.89
2022-12-29T22:01:40.004Z,31.58
2022-12-29T22:04:25.568Z,31.96
2022-12-29T22:07:12.021Z,31.88
2022-12-29T22:09:57.263Z,31.76
2022-12-29T22:12:42.677Z,31.71
2022-12-29T22:15:10.235Z,31.84
2022-12-29T22:17:37.906Z,31.84
2022-12-29T22:20:06.663Z,31.60
2022-12-29T22:22:34.929Z,31.82
2022-12-29T22:25:02.735Z,31.99
2022-12-29T22:27:29.825Z,32.27
2022-12-29T22:29:56.770Z,32.26
2022-12-29T22:32:23.984Z,32.09
2022-12-29T22:34:50.854Z,31.96
2022-12-29T22:37:18.144Z,32.11
2022-12-29T22:39:46.351Z,32.25
2022-12-29T22:42:13.285Z,32.28
2022-12-29T22:44:40.101Z,32.05
2022-12-29T22:47:07.019Z,32.26
2022-12-29T22:49:33.874Z,32.09
2022-12-29T22:52:00.756Z,32.15
2022-12-29T22:54:27.596Z,32.15
2022-12-29T22:56:55.941Z,31.88
2022-12-29T22:59:22.962Z,31.75
2022-12-29T23:01:49.943Z,31.77
2022-12-29T23:07:04.741Z,31.63
2022-12-29T23:09:32.236Z,31.69
2022-12-29T23:12:00.451Z,31.71
2022-12-29T23:14:27.289Z,31.50
2022-12-29T23:16:54.183Z,31.39
2022-12-29T23:19:21.043Z,31.25
2022-12-29T23:21:47.959Z,31.50
2022-12-29T23:24:15.083Z,31.44
2022-12-29T23:26:44.471Z,31.19
2022-12-29T23:29:15.935Z,31.59
2022-12-29T23:31:43.466Z,31.38
2022-12-29T23:34:12.179Z,31.28
2022-12-29T23:36:39.110Z,31.42
2022-12-29T23:39:06.446Z,31.65
2022-12-29T23:41:33.306Z,31.25
2022-12-29T23:44:00.215Z,31.55
2022-12-29T23:46:29.803Z,31.65
2022-12-29T23:48:56.936Z,31.33
2022-12-29T23:51:24.046Z,31.50
2022-12-29T23:53:50.846Z,31.44
2022-12-29T23:56:20.984Z,31.63
2022-12-29T23:58:48.549Z,31.24
